Buoy 46612

sailwx.info

Track history (hours):
 
Tides and Currents Weather Stations Pressure Air Temp Water Temp Dewpoint Dewpoint Depression Visibility Wind Speed Wind Dir Waves Ship Positions

Drifting buoy 46612

Last reported at 2016-Jul-27 23:00 UTC. Time now 2016-Jul-28 00:57 UTC.
Position N 31°45' W 130°43'.

Water temperature 19.7 ° C

Date/timePositionNaut miles runAvg speedWind from/ knotsBaromVisibWave heightAir tempDewpointWater temp
2016-Jul-27 23:00N 31°45' W 130°43'0 0.0 19.7
2016-Jul-27 21:00N 31°45' W 130°43'1 0.3 19.7
2016-Jul-27 18:00N 31°46' W 130°42'0 0.2 19.6
2016-Jul-27 16:00N 31°46' W 130°43'0 0.4 19.6
2016-Jul-27 15:00N 31°46' W 130°42'1 0.6 19.6
2016-Jul-27 14:00N 31°46' W 130°42'0 0.0 19.6
2016-Jul-27 13:00N 31°46' W 130°42'0 0.2 19.6
2016-Jul-27 11:00N 31°47' W 130°41'2 0.5 19.6
2016-Jul-27 07:00N 31°47' W 130°39'0 0.0 19.6
2016-Jul-27 05:00N 31°47' W 130°39'0 0.1 19.6
2016-Jul-27 03:00N 31°47' W 130°39'1 0.6 19.7
2016-Jul-27 02:00N 31°47' W 130°38'1 0.8 19.7
2016-Jul-27 01:00N 31°47' W 130°37'1 0.4 19.7
2016-Jul-26 23:00N 31°48' W 130°37'1 0.5 19.6
2016-Jul-26 21:00N 31°49' W 130°36'2 0.8 19.6
2016-Jul-26 18:00N 31°51' W 130°35'0 0.2 19.6
2016-Jul-26 16:00N 31°51' W 130°35'1 0.5 19.6
2016-Jul-26 15:00N 31°51' W 130°35'1 0.7 19.6
2016-Jul-26 14:00N 31°52' W 130°34'0 0.0 19.6
2016-Jul-26 13:00N 31°52' W 130°34'3 0.5 19.6
2016-Jul-26 07:00N 31°52' W 130°31'0 0.0 19.7
2016-Jul-26 05:00N 31°52' W 130°31'0 0.0 19.7
2016-Jul-26 04:00N 31°52' W 130°31'3 1.3 19.7
2016-Jul-26 02:00N 31°54' W 130°29'1 0.4 19.7
2016-Jul-26 00:00N 31°55' W 130°29'0 0.0 19.8
2016-Jul-25 23:00N 31°55' W 130°29'2 1.9 19.8
2016-Jul-25 22:00N 31°56' W 130°27'0 0.0 19.8
2016-Jul-25 19:00N 31°56' W 130°27'0 0.0 19.8
2016-Jul-25 18:00N 31°56' W 130°27'0 0.0 19.8
2016-Jul-25 17:00N 31°56' W 130°27'1 0.5 19.8
2016-Jul-25 15:00N 31°57' W 130°27'0 0.3 19.8
2016-Jul-25 14:00N 31°57' W 130°27'1 0.3 19.8
2016-Jul-25 12:00N 31°58' W 130°26'4 0.6 19.8
2016-Jul-25 05:00N 32°01' W 130°23'0 0.3 19.9
2016-Jul-25 04:00N 32°01' W 130°23'1 0.4 20.0
2016-Jul-25 02:00N 32°02' W 130°22'0 0.0 20.0
2016-Jul-25 01:00N 32°02' W 130°22'1 0.4 20.0
2016-Jul-24 23:00N 32°02' W 130°22'3 0.7 20.0
2016-Jul-24 18:00N 32°05' W 130°19'0 0.2 20.0
2016-Jul-24 15:00N 32°05' W 130°19'0 0.5 20.0
2016-Jul-24 14:00N 32°06' W 130°19'0 0.2 20.0
2016-Jul-24 12:00N 32°06' W 130°19'3 0.4 20.1
2016-Jul-24 05:00N 32°08' W 130°16'0 0.2 20.2
2016-Jul-24 03:00N 32°09' W 130°16'0 0.5 20.3
2016-Jul-24 02:00N 32°09' W 130°17'0 0.4 20.3
2016-Jul-24 01:00N 32°09' W 130°16'0 0.1 20.3
2016-Jul-24 00:00N 32°09' W 130°16'0 0.2 20.3
2016-Jul-23 22:00N 32°09' W 130°16'2 0.6 20.2
2016-Jul-23 18:00N 32°09' W 130°13'0 0.0 20.0
2016-Jul-23 16:00N 32°09' W 130°13'0 0.2 19.9
2016-Jul-23 15:00N 32°09' W 130°13'1 0.6 19.9
2016-Jul-23 14:00N 32°09' W 130°13'0 0.3 19.9
2016-Jul-23 13:00N 32°09' W 130°13'1 0.1 19.9
2016-Jul-23 06:00N 32°08' W 130°12'0 0.0 20.1
2016-Jul-23 04:00N 32°08' W 130°12'0 0.2 20.1
2016-Jul-23 03:00N 32°08' W 130°13'2 1.8 20.2
2016-Jul-23 02:00N 32°07' W 130°13'0 0.0 20.2
2016-Jul-23 01:00N 32°07' W 130°13'0 0.0 20.2
2016-Jul-23 00:00N 32°07' W 130°13'0 0.0 20.2
2016-Jul-22 22:00N 32°07' W 130°13'2 0.3 20.2
2016-Jul-22 16:00N 32°06' W 130°12'0 0.5 20.0
2016-Jul-22 15:00N 32°06' W 130°12'0 0.1 20.0
2016-Jul-22 14:00N 32°06' W 130°12'0 0.2 20.0
2016-Jul-22 12:00N 32°05' W 130°13'1 0.2 20.1
2016-Jul-22 06:00N 32°04' W 130°13'0 0.0 20.3
2016-Jul-22 04:00N 32°04' W 130°13'0 0.5 20.3
2016-Jul-22 03:00N 32°04' W 130°13'0 0.4 20.4
2016-Jul-22 02:00N 32°04' W 130°14'0 0.2 20.8
2016-Jul-22 01:00N 32°04' W 130°14'0 0.3 20.9
2016-Jul-22 00:00N 32°04' W 130°14'2 0.8 21.1
2016-Jul-21 22:00N 32°03' W 130°16'2 0.4 21.6
2016-Jul-21 18:00N 32°02' W 130°14'1 0.6 20.1
2016-Jul-21 17:00N 32°02' W 130°14'0 0.0 20.0
2016-Jul-21 16:00N 32°02' W 130°14'1 0.7 19.9
2016-Jul-21 15:00N 32°03' W 130°14'1 0.7 19.9
2016-Jul-21 14:00N 32°03' W 130°15'1 0.5 20.0
2016-Jul-21 13:00N 32°03' W 130°15'1 1.0 20.1
2016-Jul-21 12:00N 32°03' W 130°16'1 0.2 20.1
2016-Jul-21 06:00N 32°02' W 130°16'0 0.5 20.7
2016-Jul-21 05:00N 32°02' W 130°17'0 0.2 20.7
2016-Jul-21 04:00N 32°02' W 130°17'0 0.2 21.1
2016-Jul-21 03:00N 32°02' W 130°17'0 0.3 21.3
2016-Jul-21 02:00N 32°02' W 130°18'1 0.6 21.2
2016-Jul-21 01:00N 32°02' W 130°18'0 0.2 21.3
2016-Jul-21 00:00N 32°02' W 130°18'0 0.1 21.4
2016-Jul-20 23:00N 32°02' W 130°18'1 0.5 21.4
2016-Jul-20 21:00N 32°01' W 130°18'0 0.0 20.7
2016-Jul-20 19:00N 32°01' W 130°18'0 0.0 19.9
2016-Jul-20 18:00N 32°01' W 130°18'0 0.1 19.6
2016-Jul-20 16:00N 32°01' W 130°19'0 0.2 19.6
2016-Jul-20 15:00N 32°01' W 130°19'0 0.3 19.6
2016-Jul-20 14:00N 32°02' W 130°19'0 0.1 19.6
2016-Jul-20 13:00N 32°01' W 130°19'2 0.3 19.6
2016-Jul-20 07:00N 32°02' W 130°21'1 0.6 19.7
2016-Jul-20 06:00N 32°02' W 130°22'0 0.3 19.7
2016-Jul-20 05:00N 32°02' W 130°21'0 0.2 19.7
2016-Jul-20 03:00N 32°02' W 130°22'0 0.2 19.8
2016-Jul-20 02:00N 32°02' W 130°22'0 0.1 19.9
2016-Jul-20 01:00N 32°02' W 130°22'0 0.1 19.9
2016-Jul-19 23:00N 32°01' W 130°22'0 0.0 19.8
2016-Jul-19 21:00N 32°01' W 130°22'1 0.2 19.7
2016-Jul-19 17:00N 32°02' W 130°22'1 0.8 19.4
2016-Jul-19 16:00N 32°03' W 130°23'0 0.0 19.3
2016-Jul-19 15:00N 32°03' W 130°23'1 0.5 19.3
2016-Jul-19 13:00N 32°03' W 130°23'0 0.2 19.4
2016-Jul-19 11:00N 32°04' W 130°24'0 0.0 19.4
2016-Jul-19 09:00N 32°04' W 130°24'1 0.2 19.4
2016-Jul-19 06:00N 32°03' W 130°24'0 0.5 19.4
2016-Jul-19 05:00N 32°03' W 130°24'1 0.3 19.4
2016-Jul-19 03:00N 32°03' W 130°24'0 0.5 19.4
2016-Jul-19 02:00N 32°03' W 130°24'1 0.3 19.5
2016-Jul-19 00:00N 32°04' W 130°24'1 0.5 19.5
2016-Jul-18 23:00N 32°04' W 130°24'0 0.1 19.4
2016-Jul-18 21:00N 32°04' W 130°24'0 0.1 19.4
2016-Jul-18 19:00N 32°04' W 130°24'0 0.1 19.3
2016-Jul-18 18:00N 32°04' W 130°24'0 0.2 19.3
2016-Jul-18 17:00N 32°04' W 130°24'0 0.3 19.3
2016-Jul-18 16:00N 32°05' W 130°25'0 0.1 19.3
2016-Jul-18 14:00N 32°05' W 130°24'1 0.4 19.2
2016-Jul-18 12:00N 32°05' W 130°25'1 0.1 19.2
2016-Jul-18 07:00N 32°05' W 130°26'0 0.2 19.2
2016-Jul-18 06:00N 32°05' W 130°26'0 0.2 19.2
2016-Jul-18 04:00N 32°06' W 130°25'0 0.0 19.2
2016-Jul-18 03:00N 32°06' W 130°25'1 0.8 19.2
2016-Jul-18 02:00N 32°06' W 130°25'0 0.2 19.2
2016-Jul-18 01:00N 32°06' W 130°26'0 0.4 19.3
2016-Jul-18 00:00N 32°07' W 130°26'1 0.6 19.3
2016-Jul-17 23:00N 32°07' W 130°26'   19.3
Track history (hours):
 
Tides and Currents Weather Stations Pressure Air Temp Water Temp Dewpoint Dewpoint Depression Visibility Wind Speed Wind Dir Waves Ship Positions

Drifting buoy 46612

Last reported at 2016-Jul-27 23:00 UTC. Time now 2016-Jul-28 00:57 UTC.
Position N 31°45' W 130°43'.

Water temperature 19.7 ° C

Date/timePositionNaut miles runAvg speedWind from/ knotsBaromVisibWave heightAir tempDewpointWater temp
2016-Jul-27 23:00N 31°45' W 130°43'0 0.0 19.7
2016-Jul-27 21:00N 31°45' W 130°43'1 0.3 19.7
2016-Jul-27 18:00N 31°46' W 130°42'0 0.2 19.6
2016-Jul-27 16:00N 31°46' W 130°43'0 0.4 19.6
2016-Jul-27 15:00N 31°46' W 130°42'1 0.6 19.6
2016-Jul-27 14:00N 31°46' W 130°42'0 0.0 19.6
2016-Jul-27 13:00N 31°46' W 130°42'0 0.2 19.6
2016-Jul-27 11:00N 31°47' W 130°41'2 0.5 19.6
2016-Jul-27 07:00N 31°47' W 130°39'0 0.0 19.6
2016-Jul-27 05:00N 31°47' W 130°39'0 0.1 19.6
2016-Jul-27 03:00N 31°47' W 130°39'1 0.6 19.7
2016-Jul-27 02:00N 31°47' W 130°38'1 0.8 19.7
2016-Jul-27 01:00N 31°47' W 130°37'1 0.4 19.7
2016-Jul-26 23:00N 31°48' W 130°37'1 0.5 19.6
2016-Jul-26 21:00N 31°49' W 130°36'2 0.8 19.6
2016-Jul-26 18:00N 31°51' W 130°35'0 0.2 19.6
2016-Jul-26 16:00N 31°51' W 130°35'1 0.5 19.6
2016-Jul-26 15:00N 31°51' W 130°35'1 0.7 19.6
2016-Jul-26 14:00N 31°52' W 130°34'0 0.0 19.6
2016-Jul-26 13:00N 31°52' W 130°34'3 0.5 19.6
2016-Jul-26 07:00N 31°52' W 130°31'0 0.0 19.7
2016-Jul-26 05:00N 31°52' W 130°31'0 0.0 19.7
2016-Jul-26 04:00N 31°52' W 130°31'3 1.3 19.7
2016-Jul-26 02:00N 31°54' W 130°29'1 0.4 19.7
2016-Jul-26 00:00N 31°55' W 130°29'0 0.0 19.8
2016-Jul-25 23:00N 31°55' W 130°29'2 1.9 19.8
2016-Jul-25 22:00N 31°56' W 130°27'0 0.0 19.8
2016-Jul-25 19:00N 31°56' W 130°27'0 0.0 19.8
2016-Jul-25 18:00N 31°56' W 130°27'0 0.0 19.8
2016-Jul-25 17:00N 31°56' W 130°27'1 0.5 19.8
2016-Jul-25 15:00N 31°57' W 130°27'0 0.3 19.8
2016-Jul-25 14:00N 31°57' W 130°27'1 0.3 19.8
2016-Jul-25 12:00N 31°58' W 130°26'4 0.6 19.8
2016-Jul-25 05:00N 32°01' W 130°23'0 0.3 19.9
2016-Jul-25 04:00N 32°01' W 130°23'1 0.4 20.0
2016-Jul-25 02:00N 32°02' W 130°22'0 0.0 20.0
2016-Jul-25 01:00N 32°02' W 130°22'1 0.4 20.0
2016-Jul-24 23:00N 32°02' W 130°22'3 0.7 20.0
2016-Jul-24 18:00N 32°05' W 130°19'0 0.2 20.0
2016-Jul-24 15:00N 32°05' W 130°19'0 0.5 20.0
2016-Jul-24 14:00N 32°06' W 130°19'0 0.2 20.0
2016-Jul-24 12:00N 32°06' W 130°19'3 0.4 20.1
2016-Jul-24 05:00N 32°08' W 130°16'0 0.2 20.2
2016-Jul-24 03:00N 32°09' W 130°16'0 0.5 20.3
2016-Jul-24 02:00N 32°09' W 130°17'0 0.4 20.3
2016-Jul-24 01:00N 32°09' W 130°16'0 0.1 20.3
2016-Jul-24 00:00N 32°09' W 130°16'0 0.2 20.3
2016-Jul-23 22:00N 32°09' W 130°16'2 0.6 20.2
2016-Jul-23 18:00N 32°09' W 130°13'0 0.0 20.0
2016-Jul-23 16:00N 32°09' W 130°13'0 0.2 19.9
2016-Jul-23 15:00N 32°09' W 130°13'1 0.6 19.9
2016-Jul-23 14:00N 32°09' W 130°13'0 0.3 19.9
2016-Jul-23 13:00N 32°09' W 130°13'1 0.1 19.9
2016-Jul-23 06:00N 32°08' W 130°12'0 0.0 20.1
2016-Jul-23 04:00N 32°08' W 130°12'0 0.2 20.1
2016-Jul-23 03:00N 32°08' W 130°13'2 1.8 20.2
2016-Jul-23 02:00N 32°07' W 130°13'0 0.0 20.2
2016-Jul-23 01:00N 32°07' W 130°13'0 0.0 20.2
2016-Jul-23 00:00N 32°07' W 130°13'0 0.0 20.2
2016-Jul-22 22:00N 32°07' W 130°13'2 0.3 20.2
2016-Jul-22 16:00N 32°06' W 130°12'0 0.5 20.0
2016-Jul-22 15:00N 32°06' W 130°12'0 0.1 20.0
2016-Jul-22 14:00N 32°06' W 130°12'0 0.2 20.0
2016-Jul-22 12:00N 32°05' W 130°13'1 0.2 20.1
2016-Jul-22 06:00N 32°04' W 130°13'0 0.0 20.3
2016-Jul-22 04:00N 32°04' W 130°13'0 0.5 20.3
2016-Jul-22 03:00N 32°04' W 130°13'0 0.4 20.4
2016-Jul-22 02:00N 32°04' W 130°14'0 0.2 20.8
2016-Jul-22 01:00N 32°04' W 130°14'0 0.3 20.9
2016-Jul-22 00:00N 32°04' W 130°14'2 0.8 21.1
2016-Jul-21 22:00N 32°03' W 130°16'2 0.4 21.6
2016-Jul-21 18:00N 32°02' W 130°14'1 0.6 20.1
2016-Jul-21 17:00N 32°02' W 130°14'0 0.0 20.0
2016-Jul-21 16:00N 32°02' W 130°14'1 0.7 19.9
2016-Jul-21 15:00N 32°03' W 130°14'1 0.7 19.9
2016-Jul-21 14:00N 32°03' W 130°15'1 0.5 20.0
2016-Jul-21 13:00N 32°03' W 130°15'1 1.0 20.1
2016-Jul-21 12:00N 32°03' W 130°16'1 0.2 20.1
2016-Jul-21 06:00N 32°02' W 130°16'0 0.5 20.7
2016-Jul-21 05:00N 32°02' W 130°17'0 0.2 20.7
2016-Jul-21 04:00N 32°02' W 130°17'0 0.2 21.1
2016-Jul-21 03:00N 32°02' W 130°17'0 0.3 21.3
2016-Jul-21 02:00N 32°02' W 130°18'1 0.6 21.2
2016-Jul-21 01:00N 32°02' W 130°18'0 0.2 21.3
2016-Jul-21 00:00N 32°02' W 130°18'0 0.1 21.4
2016-Jul-20 23:00N 32°02' W 130°18'1 0.5 21.4
2016-Jul-20 21:00N 32°01' W 130°18'0 0.0 20.7
2016-Jul-20 19:00N 32°01' W 130°18'0 0.0 19.9
2016-Jul-20 18:00N 32°01' W 130°18'0 0.1 19.6
2016-Jul-20 16:00N 32°01' W 130°19'0 0.2 19.6
2016-Jul-20 15:00N 32°01' W 130°19'0 0.3 19.6
2016-Jul-20 14:00N 32°02' W 130°19'0 0.1 19.6
2016-Jul-20 13:00N 32°01' W 130°19'2 0.3 19.6
2016-Jul-20 07:00N 32°02' W 130°21'1 0.6 19.7
2016-Jul-20 06:00N 32°02' W 130°22'0 0.3 19.7
2016-Jul-20 05:00N 32°02' W 130°21'0 0.2 19.7
2016-Jul-20 03:00N 32°02' W 130°22'0 0.2 19.8
2016-Jul-20 02:00N 32°02' W 130°22'0 0.1 19.9
2016-Jul-20 01:00N 32°02' W 130°22'0 0.1 19.9
2016-Jul-19 23:00N 32°01' W 130°22'0 0.0 19.8
2016-Jul-19 21:00N 32°01' W 130°22'1 0.2 19.7
2016-Jul-19 17:00N 32°02' W 130°22'1 0.8 19.4
2016-Jul-19 16:00N 32°03' W 130°23'0 0.0 19.3
2016-Jul-19 15:00N 32°03' W 130°23'1 0.5 19.3
2016-Jul-19 13:00N 32°03' W 130°23'0 0.2 19.4
2016-Jul-19 11:00N 32°04' W 130°24'0 0.0 19.4
2016-Jul-19 09:00N 32°04' W 130°24'1 0.2 19.4
2016-Jul-19 06:00N 32°03' W 130°24'0 0.5 19.4
2016-Jul-19 05:00N 32°03' W 130°24'1 0.3 19.4
2016-Jul-19 03:00N 32°03' W 130°24'0 0.5 19.4
2016-Jul-19 02:00N 32°03' W 130°24'1 0.3 19.5
2016-Jul-19 00:00N 32°04' W 130°24'1 0.5 19.5
2016-Jul-18 23:00N 32°04' W 130°24'0 0.1 19.4
2016-Jul-18 21:00N 32°04' W 130°24'0 0.1 19.4
2016-Jul-18 19:00N 32°04' W 130°24'0 0.1 19.3
2016-Jul-18 18:00N 32°04' W 130°24'0 0.2 19.3
2016-Jul-18 17:00N 32°04' W 130°24'0 0.3 19.3
2016-Jul-18 16:00N 32°05' W 130°25'0 0.1 19.3
2016-Jul-18 14:00N 32°05' W 130°24'1 0.4 19.2
2016-Jul-18 12:00N 32°05' W 130°25'1 0.1 19.2
2016-Jul-18 07:00N 32°05' W 130°26'0 0.2 19.2
2016-Jul-18 06:00N 32°05' W 130°26'0 0.2 19.2
2016-Jul-18 04:00N 32°06' W 130°25'0 0.0 19.2
2016-Jul-18 03:00N 32°06' W 130°25'1 0.8 19.2
2016-Jul-18 02:00N 32°06' W 130°25'0 0.2 19.2
2016-Jul-18 01:00N 32°06' W 130°26'0 0.4 19.3
2016-Jul-18 00:00N 32°07' W 130°26'1 0.6 19.3
2016-Jul-17 23:00N 32°07' W 130°26'   19.3

Dump ship's entire track history